Time;durP1;ratioP1;P1;durP2;ratioP2;P2;SDS_P1;SDS_P2;PMS_P1;PMS_P2;Temp;Humidity;BMP_temperature;BMP_pressure;BME280_temperature;BME280_humidity;BME280_pressure;Samples;Min_cycle;Max_cycle;Signal;HPM_P1;HPM_P2
2021/08/30 00:03:20;;;;;;;;;;;12.90;99.90;;;11.96;100.00;95451.16;10389832;28;2206;-77
2021/08/30 00:08:23;;;;;;;;;;;12.90;99.90;;;11.96;100.00;95450.34;10398772;28;2168;-77
2021/08/30 00:13:26;;;;;;;;;;;12.90;99.90;;;11.92;100.00;95449.34;10401932;28;2108;-78
2021/08/30 00:18:29;;;;;;;;;;;12.90;99.90;;;11.97;100.00;95443.88;10401870;28;2108;-75
2021/08/30 00:23:32;;;;;;;;;;;13.00;99.90;;;11.95;100.00;95444.16;10397528;28;2124;-78
2021/08/30 00:28:34;;;;;;;;;;;13.00;99.90;;;11.95;100.00;95441.47;10389386;28;2253;-76
2021/08/30 00:33:38;;;;;;;;;;;12.90;99.90;;;11.96;100.00;95444.94;10393455;28;2099;-78
2021/08/30 00:38:41;;;;;;;;;;;12.90;99.90;;;11.98;100.00;95432.00;10396413;28;2072;-76
2021/08/30 00:43:44;;;;;;;;;;;13.00;99.90;;;12.00;100.00;95427.13;10395505;28;2232;-77
2021/08/30 00:48:48;;;;;;;;;;;13.00;99.90;;;11.98;100.00;95426.63;10401214;28;2226;-75
2021/08/30 00:53:50;;;;;;;;;;;12.90;99.90;;;11.96;100.00;95429.63;10403654;28;2234;-78
2021/08/30 00:58:53;;;;;;;;;;;12.90;99.90;;;12.01;100.00;95426.03;10401719;28;2037;-79
2021/08/30 01:03:56;;;;;;;;;;;13.00;99.90;;;12.00;100.00;95424.44;10405444;28;2043;-79
2021/08/30 01:08:59;;;;;;;;;;;13.00;99.90;;;11.97;100.00;95425.03;10411504;28;2209;-79
2021/08/30 01:14:02;;;;;;;;;;;13.00;99.90;;;11.96;100.00;95412.63;10395558;28;2104;-79
2021/08/30 01:19:04;;;;;;;;;;;13.00;99.90;;;11.98;100.00;95418.53;10398423;28;2118;-77
2021/08/30 01:24:13;;;;;;;;;;;12.90;99.90;;;11.97;100.00;95414.25;10400625;28;2217;-79
2021/08/30 01:29:16;;;;;;;;;;;12.90;99.90;;;11.93;100.00;95413.22;10397287;28;2038;-79
2021/08/30 01:34:19;;;;;;;;;;;12.90;99.90;;;11.87;100.00;95409.78;10397486;28;2260;-79
2021/08/30 01:39:26;;;;;;;;;;;12.90;99.90;;;11.83;100.00;95414.16;10406286;28;2050;-79
2021/08/30 01:44:28;;;;;;;;;;;12.80;99.90;;;11.80;100.00;95412.81;10408144;28;2049;-77
2021/08/30 01:49:32;;;;;;;;;;;12.80;99.90;;;11.81;100.00;95408.25;10406930;28;2176;-78
2021/08/30 01:54:35;;;;;;;;;;;12.80;99.90;;;11.82;100.00;95412.56;10396964;28;2068;-77
2021/08/30 02:04:58;;;;;;;;;;;12.80;99.90;;;11.77;100.00;95394.56;10396704;28;2120;-77
2021/08/30 02:10:01;;;;;;;;;;;12.80;99.90;;;11.80;100.00;95401.25;10399082;28;2100;-78
2021/08/30 02:15:06;;;;;;;;;;;12.80;99.90;;;11.76;100.00;95395.63;10400283;28;2115;-79
2021/08/30 02:20:09;;;;;;;;;;;12.80;99.90;;;11.77;100.00;95394.56;10400424;28;2081;-77
2021/08/30 02:25:12;;;;;;;;;;;12.80;99.90;;;11.80;100.00;95388.59;10398973;28;2199;-78
2021/08/30 02:30:15;;;;;;;;;;;12.80;99.90;;;11.78;100.00;95388.09;10392721;28;2104;-79
2021/08/30 02:35:18;;;;;;;;;;;12.70;99.90;;;11.82;100.00;95385.63;10396090;28;2276;-76
2021/08/30 02:40:22;;;;;;;;;;;12.80;99.90;;;11.76;100.00;95386.75;10398187;28;2088;-80
2021/08/30 02:45:25;;;;;;;;;;;12.80;99.90;;;11.74;100.00;95383.56;10398393;28;2252;-79
2021/08/30 02:50:28;;;;;;;;;;;12.80;99.90;;;11.76;100.00;95374.09;10390377;28;2132;-79
2021/08/30 02:55:31;;;;;;;;;;;12.80;99.90;;;11.75;100.00;95377.88;10397307;28;2176;-79
2021/08/30 03:00:34;;;;;;;;;;;12.80;99.90;;;11.74;100.00;95368.19;10398992;28;2107;-79
2021/08/30 03:05:38;;;;;;;;;;;12.70;99.90;;;11.76;100.00;95368.69;10410981;28;2168;-79
2021/08/30 03:10:40;;;;;;;;;;;12.80;99.90;;;11.72;100.00;95365.00;10395356;28;2148;-79
2021/08/30 03:15:43;;;;;;;;;;;12.80;99.90;;;11.78;100.00;95363.84;10407048;28;2083;-79
2021/08/30 03:20:46;;;;;;;;;;;12.70;99.90;;;11.75;100.00;95356.34;10406491;28;2041;-78
2021/08/30 03:25:49;;;;;;;;;;;12.80;99.90;;;11.76;100.00;95355.25;10416371;28;2400;-79
2021/08/30 03:30:52;;;;;;;;;;;12.80;99.90;;;11.70;100.00;95347.53;10404692;28;2120;-80
2021/08/30 03:35:55;;;;;;;;;;;12.70;99.90;;;11.71;100.00;95349.16;10415128;28;2237;-79
2021/08/30 03:40:59;;;;;;;;;;;12.70;99.90;;;11.69;100.00;95348.63;10397245;28;2228;-80
2021/08/30 03:46:02;;;;;;;;;;;12.70;99.90;;;11.69;100.00;95344.03;10405998;28;2116;-78
2021/08/30 03:51:05;;;;;;;;;;;12.70;99.90;;;11.70;100.00;95351.00;10421376;28;2032;-77
2021/08/30 03:56:07;;;;;;;;;;;12.70;99.90;;;11.69;100.00;95356.69;10405704;28;2156;-78
2021/08/30 04:01:10;;;;;;;;;;;12.70;99.90;;;11.68;100.00;95352.41;10411412;28;2084;-77
2021/08/30 04:06:14;;;;;;;;;;;12.70;99.90;;;11.66;100.00;95341.13;10407283;28;2105;-78
2021/08/30 04:11:17;;;;;;;;;;;12.70;99.90;;;11.65;100.00;95348.41;10402683;28;2666;-79
2021/08/30 04:16:20;;;;;;;;;;;12.70;99.90;;;11.69;100.00;95338.66;10405891;28;2107;-78
2021/08/30 04:21:23;;;;;;;;;;;12.70;99.90;;;11.69;100.00;95330.56;10410890;28;2149;-78
2021/08/30 04:26:26;;;;;;;;;;;12.70;99.90;;;11.66;100.00;95328.47;10411234;28;2149;-78
2021/08/30 04:31:29;;;;;;;;;;;12.70;99.90;;;11.72;100.00;95326.50;10412592;28;2100;-78
2021/08/30 04:36:32;;;;;;;;;;;12.70;99.90;;;11.69;100.00;95319.81;10406262;28;2132;-78
2021/08/30 04:41:35;;;;;;;;;;;12.70;99.90;;;11.70;100.00;95317.91;10405822;28;1982;-78
2021/08/30 04:46:38;;;;;;;;;;;12.70;99.90;;;11.69;100.00;95321.69;10409539;28;2129;-78
2021/08/30 04:51:41;;;;;;;;;;;12.70;99.90;;;11.66;100.00;95311.53;10392791;28;2059;-78
2021/08/30 04:56:43;;;;;;;;;;;12.70;99.90;;;11.72;100.00;95323.81;10392620;28;2275;-78
2021/08/30 05:01:46;;;;;;;;;;;12.70;99.90;;;11.72;100.00;95311.16;10402828;28;2048;-77
2021/08/30 05:06:50;;;;;;;;;;;12.70;99.90;;;11.66;100.00;95306.13;10397162;28;2057;-78
2021/08/30 05:11:52;;;;;;;;;;;12.70;99.90;;;11.69;100.00;95298.25;10393289;28;2334;-78
2021/08/30 05:16:55;;;;;;;;;;;12.70;99.90;;;11.72;100.00;95294.19;10401101;28;2103;-78
2021/08/30 05:21:58;;;;;;;;;;;12.70;99.90;;;11.69;100.00;95282.09;10405666;28;2109;-80
2021/08/30 05:27:01;;;;;;;;;;;12.70;99.90;;;11.67;100.00;95276.22;10406267;28;2374;-77
2021/08/30 05:32:04;;;;;;;;;;;12.70;99.90;;;11.67;100.00;95287.00;10411636;28;2228;-78
2021/08/30 05:37:07;;;;;;;;;;;12.70;99.90;;;11.68;100.00;95279.72;10399442;28;2049;-80
2021/08/30 05:42:10;;;;;;;;;;;12.70;99.90;;;11.69;100.00;95278.63;10401291;28;2099;-78
2021/08/30 05:47:13;;;;;;;;;;;12.70;99.90;;;11.78;100.00;95271.50;10397678;28;2229;-79
2021/08/30 05:52:16;;;;;;;;;;;12.70;99.90;;;11.72;100.00;95276.16;10394897;28;2154;-80
2021/08/30 05:57:19;;;;;;;;;;;12.70;99.90;;;11.80;100.00;95270.09;10395650;28;2176;-79
2021/08/30 06:02:22;;;;;;;;;;;12.80;99.90;;;11.75;100.00;95267.47;10395767;28;2030;-78
2021/08/30 06:07:25;;;;;;;;;;;12.70;99.90;;;11.69;100.00;95260.56;10398142;28;2019;-79
2021/08/30 06:12:28;;;;;;;;;;;12.70;99.90;;;11.74;100.00;95263.19;10393389;28;2045;-79
2021/08/30 06:17:30;;;;;;;;;;;12.70;99.90;;;11.72;100.00;95270.78;10400530;28;1914;-78
2021/08/30 06:22:33;;;;;;;;;;;12.70;99.90;;;11.83;100.00;95279.50;10407285;28;1955;-77
2021/08/30 06:27:36;;;;;;;;;;;12.80;99.90;;;11.81;100.00;95277.09;10396194;28;2282;-79
2021/08/30 06:32:39;;;;;;;;;;;12.80;99.90;;;11.80;100.00;95288.16;10393179;28;2610;-78
2021/08/30 06:37:42;;;;;;;;;;;12.80;99.90;;;11.90;100.00;95286.13;10399866;28;2092;-78
2021/08/30 06:42:45;;;;;;;;;;;12.90;99.90;;;11.80;100.00;95293.53;10395965;28;2096;-78
2021/08/30 06:47:48;;;;;;;;;;;12.80;99.90;;;11.77;100.00;95300.31;10398929;28;2209;-79
2021/08/30 06:52:51;;;;;;;;;;;12.70;99.90;;;11.97;100.00;95290.34;10397874;28;2152;-80
2021/08/30 06:57:54;;;;;;;;;;;12.90;99.90;;;12.04;100.00;95315.03;10406598;28;3316;-78
2021/08/30 07:02:57;;;;;;;;;;;12.90;99.90;;;12.22;100.00;95324.16;10420500;28;2077;-77
2021/08/30 07:08:00;;;;;;;;;;;13.00;99.90;;;12.43;100.00;95337.00;10413190;28;2161;-77
2021/08/30 07:13:03;;;;;;;;;;;13.20;99.90;;;12.57;100.00;95326.25;10403919;28;2267;-77
2021/08/30 07:18:06;;;;;;;;;;;13.30;99.90;;;12.60;100.00;95325.66;10407749;28;2278;-76
2021/08/30 07:23:09;;;;;;;;;;;13.40;99.90;;;12.71;100.00;95337.84;10426963;28;2172;-79
2021/08/30 07:28:12;;;;;;;;;;;13.50;99.90;;;12.86;100.00;95347.56;10445179;28;2044;-79
2021/08/30 07:33:14;;;;;;;;;;;13.50;99.90;;;12.57;100.00;95357.78;10398945;28;2061;-78
2021/08/30 07:38:17;;;;;;;;;;;13.50;99.90;;;12.53;100.00;95364.88;10396941;28;2105;-77
2021/08/30 07:43:20;;;;;;;;;;;13.50;99.90;;;12.56;100.00;95358.91;10404104;28;2227;-78
2021/08/30 07:48:23;;;;;;;;;;;13.40;99.90;;;12.53;100.00;95367.56;10404000;28;2626;-77
2021/08/30 07:53:28;;;;;;;;;;;13.50;99.90;;;12.47;100.00;95374.13;10405006;28;2065;-77
2021/08/30 07:58:31;;;;;;;;;;;13.50;99.90;;;12.52;100.00;95376.75;10405299;28;2064;-78
2021/08/30 08:03:34;;;;;;;;;;;13.50;99.90;;;12.59;100.00;95382.56;10402088;28;2204;-79
2021/08/30 08:08:37;;;;;;;;;;;13.50;99.90;;;12.90;100.00;95394.41;10391578;28;2085;-77
2021/08/30 08:13:40;;;;;;;;;;;13.60;99.90;;;13.23;100.00;95391.69;10390853;28;2092;-78
2021/08/30 08:18:42;;;;;;;;;;;13.90;99.90;;;13.28;100.00;95399.69;10389021;28;2173;-78
2021/08/30 08:23:45;;;;;;;;;;;14.00;99.90;;;13.33;100.00;95415.78;10394326;28;2145;-80
2021/08/30 08:28:48;;;;;;;;;;;14.10;99.90;;;13.73;100.00;95421.47;10394163;28;2227;-79
2021/08/30 08:33:51;;;;;;;;;;;14.40;99.90;;;13.89;100.00;95411.16;10400716;28;2329;-77
2021/08/30 08:38:54;;;;;;;;;;;14.50;99.90;;;14.77;100.00;95425.91;10399876;28;2150;-80
2021/08/30 08:43:57;;;;;;;;;;;15.00;99.90;;;14.80;100.00;95421.78;10399034;28;2221;-81
2021/08/30 08:49:00;;;;;;;;;;;15.40;99.90;;;14.37;100.00;95432.25;10394675;28;2224;-79
2021/08/30 08:54:03;;;;;;;;;;;15.30;99.90;;;14.01;100.00;95431.16;10403872;28;2024;-78
2021/08/30 08:59:06;;;;;;;;;;;14.90;99.90;;;13.79;100.00;95434.56;10395797;28;2092;-79
2021/08/30 09:04:10;;;;;;;;;;;14.80;99.90;;;14.19;100.00;95442.94;10399561;28;1974;-79
2021/08/30 09:09:14;;;;;;;;;;;14.80;99.90;;;14.62;100.00;95452.53;10395744;28;2081;-79
2021/08/30 09:14:17;;;;;;;;;;;15.10;99.90;;;14.57;100.00;95454.25;10401019;28;1999;-79
2021/08/30 09:19:20;;;;;;;;;;;15.30;99.90;;;15.12;100.00;95458.59;10399608;28;1959;-78
2021/08/30 09:24:23;;;;;;;;;;;15.60;99.90;;;15.22;100.00;95462.97;10396806;28;2123;-78
2021/08/30 09:29:26;;;;;;;;;;;15.80;99.90;;;15.92;100.00;95462.19;10396151;28;2034;-78
2021/08/30 09:34:29;;;;;;;;;;;16.20;99.90;;;15.28;100.00;95464.44;10391404;28;2100;-80
2021/08/30 09:39:33;;;;;;;;;;;16.30;99.90;;;14.63;100.00;95465.75;10401108;28;2001;-78
2021/08/30 09:44:36;;;;;;;;;;;15.80;99.90;;;14.11;100.00;95470.66;10407574;28;1807;-78
2021/08/30 09:49:39;;;;;;;;;;;15.30;99.90;;;13.87;100.00;95470.09;10398388;28;2010;-77
2021/08/30 09:54:42;;;;;;;;;;;14.90;99.90;;;14.50;100.00;95467.38;10392010;28;2048;-79
2021/08/30 09:59:44;;;;;;;;;;;15.00;99.90;;;14.68;100.00;95471.03;10409488;28;1927;-80
2021/08/30 10:04:47;;;;;;;;;;;15.40;99.90;;;14.26;100.00;95461.44;10395292;28;2081;-77
2021/08/30 10:09:53;;;;;;;;;;;15.30;99.90;;;13.96;100.00;95458.28;10417002;28;2077;-78
2021/08/30 10:14:55;;;;;;;;;;;15.00;99.90;;;13.94;100.00;95465.09;10393909;28;2235;-78
2021/08/30 10:19:58;;;;;;;;;;;14.80;99.90;;;13.73;100.00;95473.59;10388706;28;2085;-79
2021/08/30 10:25:02;;;;;;;;;;;14.70;99.90;;;13.90;100.00;95486.50;10394653;28;1709;-76
2021/08/30 10:30:05;;;;;;;;;;;14.70;99.90;;;13.84;100.00;95482.31;10392627;28;1967;-78
2021/08/30 10:35:07;;;;;;;;;;;14.70;99.90;;;13.87;100.00;95483.59;10391908;28;2455;-78
2021/08/30 10:40:10;;;;;;;;;;;14.70;99.90;;;13.91;100.00;95473.78;10403277;28;2482;-79
2021/08/30 10:45:13;;;;;;;;;;;14.70;99.90;;;14.70;100.00;95481.56;10396761;28;2061;-78
2021/08/30 10:50:16;;;;;;;;;;;15.00;99.90;;;15.14;100.00;95492.41;10409018;28;2031;-79
2021/08/30 10:55:19;;;;;;;;;;;15.50;99.90;;;15.67;100.00;95491.56;10396495;28;1995;-77
2021/08/30 11:00:22;;;;;;;;;;;15.90;99.90;;;15.86;100.00;95490.53;10387200;28;2179;-78
2021/08/30 11:05:25;;;;;;;;;;;16.40;99.90;;;16.37;99.63;95492.56;10392416;28;2024;-77
2021/08/30 11:10:28;;;;;;;;;;;16.80;99.90;;;16.09;98.76;95502.06;10390942;28;1955;-77
2021/08/30 11:15:32;;;;;;;;;;;16.90;99.90;;;14.12;100.00;95517.41;10387897;28;2057;-77
2021/08/30 11:20:35;;;;;;;;;;;16.10;99.90;;;13.42;100.00;95532.81;10399772;28;1865;-79
2021/08/30 11:25:38;;;;;;;;;;;15.10;99.90;;;12.59;100.00;95522.75;10395485;28;2179;-78
2021/08/30 11:31:01;;;;;;;;;;;14.10;99.90;;;12.17;100.00;95532.53;10390809;28;2096;-78
2021/08/30 11:36:03;;;;;;;;;;;13.50;99.90;;;12.07;100.00;95533.44;10396718;28;1930;-78
2021/08/30 11:41:07;;;;;;;;;;;13.30;99.90;;;11.89;100.00;95540.38;10393103;28;1896;-80
2021/08/30 11:46:09;;;;;;;;;;;13.10;99.90;;;12.30;100.00;95537.19;10407509;28;1806;-79
2021/08/30 11:51:12;;;;;;;;;;;13.10;99.90;;;12.34;100.00;95542.78;10400843;28;2089;-78
2021/08/30 11:56:15;;;;;;;;;;;13.20;99.90;;;12.74;100.00;95535.25;10397775;28;2018;-80
2021/08/30 12:01:18;;;;;;;;;;;13.50;99.90;;;12.73;100.00;95547.13;10399514;28;2118;-81
2021/08/30 12:06:21;;;;;;;;;;;13.60;99.90;;;12.83;100.00;95546.97;10417828;28;2140;-79
2021/08/30 12:11:24;;;;;;;;;;;13.70;99.90;;;13.02;100.00;95549.63;10413243;28;2058;-80
2021/08/30 12:16:27;;;;;;;;;;;13.90;99.90;;;13.53;100.00;95549.59;10403840;28;1990;-79
2021/08/30 12:21:30;;;;;;;;;;;14.10;99.90;;;13.64;100.00;95553.72;10402654;28;2013;-79
2021/08/30 12:26:33;;;;;;;;;;;14.40;99.90;;;14.12;100.00;95556.06;10426102;28;1825;-78
2021/08/30 12:31:36;;;;;;;;;;;14.60;99.90;;;14.39;100.00;95549.84;10405617;28;1697;-81
2021/08/30 12:36:39;;;;;;;;;;;15.00;99.90;;;14.82;100.00;95554.84;10403396;28;2166;-79
2021/08/30 12:41:42;;;;;;;;;;;15.30;99.90;;;14.96;100.00;95549.44;10401621;28;2272;-79
2021/08/30 12:46:45;;;;;;;;;;;15.40;99.90;;;15.24;100.00;95544.69;10402176;28;2151;-79
2021/08/30 12:51:47;;;;;;;;;;;15.70;99.90;;;15.72;100.00;95541.34;10399271;28;2164;-80
2021/08/30 12:56:51;;;;;;;;;;;16.10;99.90;;;16.52;100.00;95550.19;10387656;28;2220;-77
2021/08/30 13:01:54;;;;;;;;;;;16.60;99.90;;;16.84;98.72;95551.72;10401130;28;2148;-80
2021/08/30 13:06:57;;;;;;;;;;;17.00;99.90;;;17.15;97.93;95555.06;10394621;28;2084;-78
2021/08/30 13:12:00;;;;;;;;;;;17.50;99.90;;;17.78;89.44;95552.75;10391845;28;2090;-79
2021/08/30 13:17:04;;;;;;;;;;;18.00;99.90;;;18.61;88.92;95553.00;10394509;28;2477;-79
2021/08/30 13:22:06;;;;;;;;;;;18.70;99.90;;;18.57;86.49;95546.59;10392139;28;2100;-78
2021/08/30 13:27:09;;;;;;;;;;;19.00;99.90;;;18.33;84.13;95547.25;10401724;28;2144;-78
2021/08/30 13:32:16;;;;;;;;;;;18.90;99.90;;;18.93;80.67;95544.50;10400087;28;2235;-79
2021/08/30 13:37:19;;;;;;;;;;;19.00;99.90;;;18.80;80.78;95538.97;10418225;28;2056;-79
2021/08/30 13:42:22;;;;;;;;;;;19.20;99.90;;;19.03;81.30;95544.91;10400387;28;2165;-79
2021/08/30 13:47:25;;;;;;;;;;;19.40;99.90;;;19.45;78.91;95553.81;10401802;28;2216;-80
2021/08/30 13:52:28;;;;;;;;;;;19.60;99.90;;;19.41;85.58;95552.09;10413619;28;2137;-79
2021/08/30 13:57:31;;;;;;;;;;;19.90;99.90;;;19.05;74.99;95558.19;10401650;28;2122;-78
2021/08/30 14:02:33;;;;;;;;;;;20.00;99.90;;;19.01;81.34;95557.22;10403912;28;2143;-80
2021/08/30 14:07:37;;;;;;;;;;;19.70;99.90;;;19.98;73.84;95557.63;10393403;28;2085;-78
2021/08/30 14:12:40;;;;;;;;;;;20.00;99.90;;;20.07;72.40;95567.63;10395591;28;2108;-78
2021/08/30 14:17:43;;;;;;;;;;;20.60;99.90;;;19.00;73.38;95569.25;10396495;28;2375;-79
2021/08/30 14:22:45;;;;;;;;;;;20.30;99.90;;;16.25;84.10;95583.81;10398618;28;2235;-79
2021/08/30 14:27:48;;;;;;;;;;;18.70;99.90;;;14.50;100.00;95586.38;10409547;28;2188;-79
2021/08/30 14:32:51;;;;;;;;;;;16.80;99.90;;;12.89;100.00;95592.44;10421453;28;2175;-78
2021/08/30 14:37:55;;;;;;;;;;;15.00;99.90;;;12.92;100.00;95578.38;10418374;28;2136;-79
2021/08/30 14:42:57;;;;;;;;;;;14.20;99.90;;;13.31;100.00;95598.88;10419267;28;2078;-80
2021/08/30 14:48:02;;;;;;;;;;;14.20;99.90;;;13.81;100.00;95595.59;10398710;28;2116;-79
2021/08/30 14:53:06;;;;;;;;;;;14.50;99.90;;;14.06;100.00;95589.72;10419335;28;2088;-79
2021/08/30 14:58:09;;;;;;;;;;;14.80;99.90;;;14.03;100.00;95584.88;10423554;28;2143;-78
2021/08/30 15:03:12;;;;;;;;;;;15.00;99.90;;;13.90;100.00;95593.78;10407170;28;2212;-78
2021/08/30 15:08:15;;;;;;;;;;;15.00;99.90;;;13.76;100.00;95605.38;10398044;28;2252;-79
2021/08/30 15:13:18;;;;;;;;;;;14.90;99.90;;;13.79;100.00;95603.97;10396816;28;2184;-78
2021/08/30 15:18:21;;;;;;;;;;;14.90;99.90;;;13.79;100.00;95609.38;10397652;28;2045;-80
2021/08/30 15:23:24;;;;;;;;;;;14.80;99.90;;;13.84;100.00;95601.19;10417188;28;2171;-80
2021/08/30 15:28:27;;;;;;;;;;;14.80;99.90;;;13.87;100.00;95600.59;10415264;28;2081;-77
2021/08/30 15:33:30;;;;;;;;;;;14.90;99.90;;;13.71;100.00;95605.47;10414691;28;2053;-79
2021/08/30 15:38:32;;;;;;;;;;;14.80;99.90;;;13.63;100.00;95611.56;10426862;28;2040;-80
2021/08/30 15:43:35;;;;;;;;;;;14.70;99.90;;;13.68;100.00;95610.69;10428235;28;2185;-78
2021/08/30 15:48:38;;;;;;;;;;;14.70;99.90;;;13.71;100.00;95620.88;10401512;28;2634;-78
2021/08/30 15:53:41;;;;;;;;;;;14.70;99.90;;;13.76;100.00;95623.50;10407255;28;2010;-82
2021/08/30 15:58:44;;;;;;;;;;;14.80;99.90;;;13.67;100.00;95627.97;10398696;28;2092;-77
2021/08/30 16:03:47;;;;;;;;;;;14.80;99.90;;;13.63;100.00;95627.75;10400209;28;2077;-79
2021/08/30 16:08:50;;;;;;;;;;;14.70;99.90;;;13.50;100.00;95637.44;10397941;28;2169;-78
2021/08/30 16:13:54;;;;;;;;;;;14.60;99.90;;;13.54;100.00;95648.41;10398554;28;2112;-83
2021/08/30 16:18:57;;;;;;;;;;;14.60;99.90;;;13.47;100.00;95656.91;10394104;28;1902;-77
2021/08/30 16:24:00;;;;;;;;;;;14.50;99.90;;;13.43;100.00;95655.91;10396660;28;2113;-80
2021/08/30 16:29:03;;;;;;;;;;;14.50;99.90;;;13.55;100.00;95657.31;10394890;28;1813;-79
2021/08/30 16:34:06;;;;;;;;;;;14.50;99.90;;;13.61;100.00;95661.56;10396442;28;2042;-79
2021/08/30 16:39:09;;;;;;;;;;;14.60;99.90;;;13.60;100.00;95659.94;10398075;28;2304;-76
2021/08/30 16:44:12;;;;;;;;;;;14.60;99.90;;;13.39;100.00;95660.28;10395103;28;1868;-79
2021/08/30 16:49:15;;;;;;;;;;;14.50;99.90;;;13.33;100.00;95663.34;10392017;28;2073;-79
2021/08/30 16:54:19;;;;;;;;;;;14.40;99.90;;;13.22;100.00;95665.41;10407702;28;1964;-80
2021/08/30 16:59:21;;;;;;;;;;;14.30;99.90;;;13.15;100.00;95662.22;10405809;28;2480;-79
2021/08/30 17:04:25;;;;;;;;;;;14.30;99.90;;;12.93;100.00;95660.94;10398183;28;2124;-77
2021/08/30 17:09:28;;;;;;;;;;;14.10;99.90;;;12.90;100.00;95663.38;10408244;28;1960;-79
2021/08/30 17:14:31;;;;;;;;;;;14.00;99.90;;;12.83;100.00;95665.66;10414928;28;2229;-80
2021/08/30 17:19:34;;;;;;;;;;;14.00;99.90;;;12.80;100.00;95685.91;10401567;28;2040;-80
2021/08/30 17:24:37;;;;;;;;;;;13.90;99.90;;;12.63;100.00;95683.69;10407610;28;2057;-79
2021/08/30 17:29:40;;;;;;;;;;;13.80;99.90;;;12.60;100.00;95678.09;10426456;28;2165;-81
2021/08/30 17:34:43;;;;;;;;;;;13.70;99.90;;;12.63;100.00;95672.09;10432969;28;2139;-82
2021/08/30 17:39:46;;;;;;;;;;;13.60;99.90;;;12.66;100.00;95685.00;10408892;28;2288;-79
2021/08/30 17:44:49;;;;;;;;;;;13.70;99.90;;;12.72;100.00;95705.41;10420194;28;2171;-79
2021/08/30 17:49:52;;;;;;;;;;;13.70;99.90;;;12.77;100.00;95705.38;10405036;28;1577;-79
2021/08/30 17:54:55;;;;;;;;;;;13.70;99.90;;;12.70;100.00;95713.00;10400043;28;1573;-80
2021/08/30 17:59:58;;;;;;;;;;;13.80;99.90;;;12.57;100.00;95713.69;10397048;28;1943;-77
2021/08/30 18:05:01;;;;;;;;;;;13.60;99.90;;;12.54;100.00;95727.78;10401224;28;2069;-79
2021/08/30 18:10:04;;;;;;;;;;;13.60;99.90;;;12.40;100.00;95735.72;10399172;28;2033;-80
2021/08/30 18:15:07;;;;;;;;;;;13.50;99.90;;;12.34;100.00;95740.38;10408182;28;1986;-79
2021/08/30 18:20:09;;;;;;;;;;;13.40;99.90;;;12.35;100.00;95733.09;10421801;28;1892;-80
2021/08/30 18:25:12;;;;;;;;;;;13.40;99.90;;;12.32;100.00;95745.25;10423137;28;2030;-78
2021/08/30 18:30:15;;;;;;;;;;;13.40;99.90;;;12.33;100.00;95743.34;10405001;28;1873;-81
2021/08/30 18:35:18;;;;;;;;;;;13.40;99.90;;;12.21;100.00;95746.41;10407876;28;2010;-78
2021/08/30 18:40:21;;;;;;;;;;;13.30;99.90;;;12.20;100.00;95757.50;10421703;28;1917;-81
2021/08/30 18:45:24;;;;;;;;;;;13.30;99.90;;;12.29;100.00;95751.22;10404606;28;2346;-79
2021/08/30 18:50:27;;;;;;;;;;;13.20;99.90;;;12.39;100.00;95753.78;10404718;28;2104;-79
2021/08/30 18:55:30;;;;;;;;;;;13.40;99.90;;;12.31;100.00;95759.81;10405391;28;2125;-79
2021/08/30 19:00:33;;;;;;;;;;;13.40;99.90;;;12.22;100.00;95771.50;10401941;28;2046;-80
2021/08/30 19:05:36;;;;;;;;;;;13.40;99.90;;;12.07;100.00;95775.13;10402787;28;2116;-79
2021/08/30 19:10:39;;;;;;;;;;;13.20;99.90;;;12.11;100.00;95781.56;10400990;28;2224;-80
2021/08/30 19:15:44;;;;;;;;;;;13.20;99.90;;;12.13;100.00;95776.69;10404765;28;2177;-79
2021/08/30 19:20:47;;;;;;;;;;;13.20;99.90;;;12.11;100.00;95779.66;10414815;28;2055;-78
2021/08/30 19:25:50;;;;;;;;;;;13.20;99.90;;;12.22;100.00;95788.47;10402861;28;2045;-77
2021/08/30 19:30:53;;;;;;;;;;;13.20;99.90;;;12.24;100.00;95796.28;10404996;28;2045;-78
2021/08/30 19:35:56;;;;;;;;;;;13.30;99.90;;;12.31;100.00;95791.34;10399496;28;2176;-79
2021/08/30 19:40:59;;;;;;;;;;;13.30;99.90;;;12.30;100.00;95795.94;10403021;28;2055;-78
2021/08/30 19:46:03;;;;;;;;;;;13.40;99.90;;;12.25;100.00;95787.09;10416805;28;2092;-79
2021/08/30 19:51:06;;;;;;;;;;;13.40;99.90;;;12.27;100.00;95790.28;10405744;28;2266;-82
2021/08/30 19:56:11;;;;;;;;;;;13.40;99.90;;;12.17;100.00;95791.22;10428690;28;2089;-82
2021/08/30 20:01:15;;;;;;;;;;;13.30;99.90;;;12.21;100.00;95797.63;10417202;28;2159;-82
2021/08/30 20:06:19;;;;;;;;;;;13.30;99.90;;;12.26;100.00;95802.97;10411803;28;2069;-79
2021/08/30 20:11:23;;;;;;;;;;;13.30;99.90;;;12.37;100.00;95796.41;10403165;28;1949;-78
2021/08/30 20:16:26;;;;;;;;;;;13.40;99.90;;;12.41;100.00;95800.16;10395832;28;2495;-80
2021/08/30 20:21:29;;;;;;;;;;;13.40;99.90;;;12.46;100.00;95810.06;10410680;28;2548;-79
2021/08/30 20:26:32;;;;;;;;;;;13.50;99.90;;;12.45;100.00;95806.56;10424170;28;2095;-79
2021/08/30 20:31:35;;;;;;;;;;;13.50;99.90;;;12.43;100.00;95800.66;10411717;28;2022;-79
2021/08/30 20:36:38;;;;;;;;;;;13.50;99.90;;;12.41;100.00;95808.25;10404486;28;2191;-81
2021/08/30 20:41:41;;;;;;;;;;;13.50;99.90;;;12.39;100.00;95794.22;10408998;28;1904;-78
2021/08/30 20:46:45;;;;;;;;;;;13.50;99.90;;;12.45;100.00;95801.16;10399633;28;2097;-80
2021/08/30 20:51:48;;;;;;;;;;;13.50;99.90;;;12.44;100.00;95793.38;10403855;28;2111;-80
2021/08/30 20:56:51;;;;;;;;;;;13.50;99.90;;;12.45;100.00;95800.38;10410562;28;1967;-81
2021/08/30 21:01:54;;;;;;;;;;;13.50;99.90;;;12.47;100.00;95808.16;10408245;28;1994;-80
2021/08/30 21:06:57;;;;;;;;;;;13.50;99.90;;;12.50;100.00;95800.31;10425249;28;2100;-77
2021/08/30 21:12:00;;;;;;;;;;;13.50;99.90;;;12.53;100.00;95804.34;10410976;28;2021;-84
2021/08/30 21:17:04;;;;;;;;;;;13.50;99.90;;;12.52;100.00;95787.34;10415386;28;2245;-79
2021/08/30 21:22:07;;;;;;;;;;;13.50;99.90;;;12.51;100.00;95790.34;10409750;28;1889;-78
2021/08/30 21:27:10;;;;;;;;;;;13.60;99.90;;;12.53;100.00;95793.56;10406533;28;2038;-80
2021/08/30 21:32:13;;;;;;;;;;;13.60;99.90;;;12.55;100.00;95796.78;10425629;28;2045;-78
2021/08/30 21:37:16;;;;;;;;;;;13.60;99.90;;;12.56;100.00;95790.28;10401066;28;2055;-80
2021/08/30 21:42:19;;;;;;;;;;;13.60;99.90;;;12.55;100.00;95796.78;10409277;28;1733;-81
2021/08/30 21:47:22;;;;;;;;;;;13.60;99.90;;;12.51;100.00;95801.13;10400822;28;2081;-77
2021/08/30 21:52:25;;;;;;;;;;;13.50;99.90;;;12.45;100.00;95798.47;10406569;28;2063;-81
2021/08/30 21:57:27;;;;;;;;;;;13.50;99.90;;;12.52;100.00;95797.34;10407416;28;2092;-77
2021/08/30 22:02:30;;;;;;;;;;;13.60;99.90;;;12.50;100.00;95799.53;10409537;28;2079;-80
2021/08/30 22:07:33;;;;;;;;;;;13.50;99.90;;;12.51;100.00;95796.53;10410459;28;2023;-80
2021/08/30 22:12:36;;;;;;;;;;;13.60;99.90;;;12.56;100.00;95801.09;10409305;28;1809;-80
2021/08/30 22:17:39;;;;;;;;;;;13.60;99.90;;;12.61;100.00;95801.84;10407404;28;2058;-80
2021/08/30 22:22:42;;;;;;;;;;;13.60;99.90;;;12.66;100.00;95803.66;10404196;28;2084;-80
2021/08/30 22:27:45;;;;;;;;;;;13.70;99.90;;;12.67;100.00;95795.31;10424845;28;2046;-77
2021/08/30 22:32:48;;;;;;;;;;;13.70;99.90;;;12.63;100.00;95804.25;10426193;28;1908;-78
2021/08/30 22:37:51;;;;;;;;;;;13.70;99.90;;;12.66;100.00;95800.97;10417152;28;1983;-80
2021/08/30 22:42:54;;;;;;;;;;;13.70;99.90;;;12.65;100.00;95802.84;10404991;28;2036;-83
2021/08/30 22:47:57;;;;;;;;;;;13.70;99.90;;;12.62;100.00;95803.44;10422574;28;2039;-81
2021/08/30 22:53:00;;;;;;;;;;;13.70;99.90;;;12.65;100.00;95799.34;10411487;28;1998;-80
2021/08/30 22:58:03;;;;;;;;;;;13.60;99.90;;;12.64;100.00;95800.44;10404795;28;1907;-81
2021/08/30 23:03:06;;;;;;;;;;;13.70;99.90;;;12.67;100.00;95794.50;10406772;28;2100;-80